Terminal Aerodrome Forecast
Issued by NWS

Home | Current Version | Previous Version | Text Only | Print | Product List | Glossary On
Versions: 1 2 3 4 5 6 7 8 9 10 11 12 13 14 15 16 17
935
FTUS44 KTSA 241450 AAB
TAFRVS
TAF AMD
KRVS 241450Z 2415/2512 16008KT P6SM SCT013 SCT029
     FM241700 17010G16KT P6SM VCTS BKN035CB
     FM250000 17008KT P6SM BKN050
     FM250600 17008KT P6SM VCTS BKN035CB=

USA.gov is the U.S. government's official web portal to all federal, state and local government web resources and services.